< < Back
Terminal Aerodrome Forecast


Current Version              Previous Versions:   1  2  3  4  5  6  7  8  9  

Terminal Aerodrome Forecast

941
FTUS42 KCHS 171100
TAFSAV
TAF
KSAV 171132Z 1712/1812 VRB04KT P6SM SCT025
      TEMPO 1712/1714 SCT005 BKN012
     FM171400 35005KT P6SM SCT015 BKN035
     FM171800 11006KT P6SM VCSH SCT025 BKN050
     FM180000 VRB03KT P6SM SCT035 SCT200=



Latest METAR

134
SAUS80 KWBC 180100
MTRSAV
METAR KSAV 180053Z 07005KT 10SM FEW022 BKN065 BKN110 OVC150 24/22 A2989
RMK AO2 WSHFT 0008 TSE39RAE39 SLP121 FRQ LTG DSNT NE CB DSNT
NE P0021 T02440222


USA.gov is the U.S. government's official web portal to all federal, state and local government web resources and services.